createdAt,value
2018-06-24T00:01:01.259Z,89.20
2018-06-24T00:03:30.630Z,89.10
2018-06-24T00:06:00.713Z,89.40
2018-06-24T00:08:30.099Z,89.30
2018-06-24T00:10:59.569Z,88.70
2018-06-24T00:13:28.969Z,88.60
2018-06-24T00:15:58.429Z,88.90
2018-06-24T00:18:27.813Z,88.90
2018-06-24T00:20:57.190Z,89.10
2018-06-24T00:23:26.890Z,88.90
2018-06-24T00:25:56.507Z,89.20
2018-06-24T00:28:25.941Z,89.50
2018-06-24T00:30:55.122Z,89.50
2018-06-24T00:33:24.471Z,89.60
2018-06-24T00:35:54.249Z,89.60
2018-06-24T00:38:23.619Z,89.40
2018-06-24T00:40:52.787Z,89.60
2018-06-24T00:43:22.179Z,89.40
2018-06-24T00:45:51.523Z,89.30
2018-06-24T00:48:20.909Z,89.70
2018-06-24T00:50:50.334Z,89.80
2018-06-24T00:53:19.427Z,90.10
2018-06-24T00:55:48.762Z,90.00
2018-06-24T00:58:18.243Z,89.70
2018-06-24T01:00:47.873Z,89.80
2018-06-24T01:03:16.984Z,89.80
2018-06-24T01:05:46.375Z,89.90
2018-06-24T01:08:15.900Z,90.00
2018-06-24T01:10:45.271Z,90.10
2018-06-24T01:13:14.645Z,90.50
2018-06-24T01:15:44.016Z,90.20
2018-06-24T01:20:42.332Z,89.80
2018-06-24T01:23:11.747Z,89.90
2018-06-24T01:25:41.482Z,90.00
2018-06-24T01:28:10.861Z,90.20
2018-06-24T01:30:40.617Z,90.10
2018-06-24T01:33:10.002Z,89.80
2018-06-24T01:35:39.384Z,89.50
2018-06-24T01:38:08.755Z,89.90
2018-06-24T01:40:38.234Z,90.20
2018-06-24T01:43:07.587Z,90.40
2018-06-24T01:45:37.047Z,90.40
2018-06-24T01:48:06.465Z,90.20
2018-06-24T01:50:35.902Z,90.20
2018-06-24T01:53:08.684Z,90.60
2018-06-24T01:55:38.057Z,90.70
2018-06-24T01:58:07.772Z,90.70
2018-06-24T02:00:36.863Z,90.80
2018-06-24T02:03:06.609Z,89.90
2018-06-24T02:05:36.044Z,90.40
2018-06-24T02:08:05.407Z,90.20
2018-06-24T02:10:34.796Z,89.70
2018-06-24T02:13:04.198Z,89.70
2018-06-24T02:15:33.869Z,89.70
2018-06-24T02:18:03.253Z,88.60
2018-06-24T02:20:32.680Z,90.00
2018-06-24T02:23:02.059Z,89.80
2018-06-24T02:25:31.479Z,89.20
2018-06-24T02:28:00.841Z,89.20
2018-06-24T02:30:30.285Z,88.90
2018-06-24T02:32:59.655Z,89.20
2018-06-24T02:35:29.070Z,89.30
2018-06-24T02:37:59.036Z,88.80
2018-06-24T02:40:28.423Z,87.90
2018-06-24T02:42:57.781Z,88.70
2018-06-24T02:45:27.221Z,89.20
2018-06-24T02:47:56.801Z,89.40
2018-06-24T02:50:26.064Z,89.50
2018-06-24T02:52:55.431Z,89.60
2018-06-24T02:55:24.853Z,89.90
2018-06-24T02:57:54.296Z,89.90
2018-06-24T03:00:23.692Z,89.80
2018-06-24T03:02:53.115Z,90.70
2018-06-24T03:05:22.523Z,89.00
2018-06-24T03:07:51.983Z,89.30
2018-06-24T03:10:21.505Z,89.70
2018-06-24T03:12:51.488Z,90.00
2018-06-24T03:15:21.018Z,90.20
2018-06-24T03:17:50.124Z,90.50
2018-06-24T03:20:19.515Z,89.10
2018-06-24T03:22:48.913Z,90.50
2018-06-24T03:25:18.339Z,90.60
2018-06-24T03:27:47.787Z,90.40
2018-06-24T03:30:17.165Z,89.70
2018-06-24T03:32:46.567Z,90.40
2018-06-24T03:35:15.936Z,90.50
2018-06-24T03:37:45.280Z,89.70
2018-06-24T03:40:14.652Z,91.00
2018-06-24T03:42:44.261Z,91.10
2018-06-24T03:45:13.596Z,91.60
2018-06-24T03:47:42.656Z,91.80
2018-06-24T03:50:12.056Z,92.30
2018-06-24T03:52:41.774Z,92.10
2018-06-24T03:55:10.905Z,92.30
2018-06-24T03:57:40.289Z,92.00
2018-06-24T04:00:09.780Z,90.40
2018-06-24T04:02:39.240Z,91.00
2018-06-24T04:05:08.645Z,91.50
2018-06-24T04:07:38.032Z,91.20
2018-06-24T04:10:07.452Z,91.50
2018-06-24T04:12:37.240Z,90.90
2018-06-24T04:15:07.087Z,91.80
2018-06-24T04:17:36.557Z,92.00
2018-06-24T04:20:05.928Z,92.00
2018-06-24T04:22:35.294Z,92.30
2018-06-24T04:25:05.019Z,91.80
2018-06-24T04:30:03.887Z,92.30
2018-06-24T04:32:33.235Z,92.00
2018-06-24T04:35:02.684Z,90.30
2018-06-24T04:37:31.826Z,90.40
2018-06-24T04:40:01.223Z,91.40
2018-06-24T04:42:30.371Z,91.60
2018-06-24T04:44:59.740Z,91.40
2018-06-24T04:47:29.165Z,91.70
2018-06-24T04:49:58.551Z,92.00
2018-06-24T04:52:27.945Z,91.60
2018-06-24T04:54:57.320Z,91.30
2018-06-24T04:57:26.731Z,91.20
2018-06-24T04:59:56.108Z,91.10
2018-06-24T05:02:25.505Z,89.00
2018-06-24T05:04:54.925Z,89.50
2018-06-24T05:07:24.369Z,90.40
2018-06-24T05:09:53.784Z,87.30
2018-06-24T05:12:23.169Z,89.20
2018-06-24T05:14:52.760Z,89.50
2018-06-24T05:17:22.120Z,88.00
2018-06-24T05:19:51.573Z,87.10
2018-06-24T05:22:20.957Z,86.80
2018-06-24T05:24:50.362Z,85.20
2018-06-24T05:27:19.954Z,86.30
2018-06-24T05:29:49.346Z,87.10
2018-06-24T05:32:18.849Z,86.00
2018-06-24T05:34:48.231Z,86.40
2018-06-24T05:37:17.609Z,85.30
2018-06-24T05:39:46.972Z,85.90
2018-06-24T05:42:16.350Z,86.10
2018-06-24T05:44:45.770Z,87.50
2018-06-24T05:47:15.538Z,84.90
2018-06-24T05:49:44.851Z,84.10
2018-06-24T05:52:14.241Z,84.00
2018-06-24T05:54:43.643Z,85.40
2018-06-24T05:57:12.736Z,83.60
2018-06-24T05:59:48.748Z,83.90
2018-06-24T06:02:18.128Z,83.40
2018-06-24T06:04:47.565Z,83.60
2018-06-24T06:07:16.971Z,82.60
2018-06-24T06:09:46.078Z,82.20
2018-06-24T06:12:15.261Z,83.10
2018-06-24T06:14:44.673Z,83.20
2018-06-24T06:17:14.112Z,84.50
2018-06-24T06:19:43.495Z,85.30
2018-06-24T06:22:13.220Z,83.50
2018-06-24T06:24:42.564Z,83.10
2018-06-24T06:27:11.970Z,82.60
2018-06-24T06:29:41.386Z,83.70
2018-06-24T06:32:10.752Z,82.80
2018-06-24T06:34:42.843Z,83.10
2018-06-24T06:37:12.227Z,81.50
2018-06-24T06:39:41.604Z,81.20
2018-06-24T06:42:10.783Z,81.60
2018-06-24T06:44:40.214Z,81.10
2018-06-24T06:47:09.329Z,83.30
2018-06-24T06:49:38.415Z,83.70
2018-06-24T06:52:08.200Z,83.00
2018-06-24T06:54:37.853Z,83.30
2018-06-24T06:57:08.853Z,81.70
2018-06-24T06:59:39.084Z,83.50
2018-06-24T07:02:08.529Z,81.20
2018-06-24T07:04:37.864Z,81.00
2018-06-24T07:07:07.228Z,80.30
2018-06-24T07:09:36.336Z,80.60
2018-06-24T07:12:05.543Z,80.60
2018-06-24T07:14:34.684Z,81.40
2018-06-24T07:17:03.949Z,80.60
2018-06-24T07:19:33.353Z,80.80
2018-06-24T07:22:02.931Z,78.50
2018-06-24T07:24:32.466Z,78.20
2018-06-24T07:27:01.857Z,77.80
2018-06-24T07:29:31.795Z,77.90
2018-06-24T07:32:01.243Z,77.50
2018-06-24T07:34:31.252Z,78.10
2018-06-24T07:37:00.664Z,78.30
2018-06-24T07:39:30.082Z,78.80
2018-06-24T07:41:59.252Z,77.40
2018-06-24T07:44:28.660Z,76.10
2018-06-24T07:46:58.060Z,76.00
2018-06-24T07:49:27.513Z,76.60
2018-06-24T07:51:56.909Z,76.10
2018-06-24T07:54:26.379Z,75.30
2018-06-24T07:56:55.829Z,75.60
2018-06-24T07:59:25.204Z,76.00
2018-06-24T08:01:54.561Z,74.60
2018-06-24T08:04:23.666Z,75.20
2018-06-24T08:06:53.085Z,74.90
2018-06-24T08:09:22.510Z,74.60
2018-06-24T08:11:52.528Z,74.40
2018-06-24T08:14:21.965Z,74.10
2018-06-24T08:16:51.412Z,73.80
2018-06-24T08:19:20.773Z,74.50
2018-06-24T08:21:50.181Z,73.60
2018-06-24T08:24:19.657Z,73.30
2018-06-24T08:26:49.059Z,74.00
2018-06-24T08:29:18.794Z,73.70
2018-06-24T08:31:48.135Z,74.10
2018-06-24T08:34:17.489Z,73.90
2018-06-24T08:36:47.256Z,73.50
2018-06-24T08:39:16.612Z,73.20
2018-06-24T08:41:49.329Z,73.50
2018-06-24T08:44:18.677Z,73.60
2018-06-24T08:46:48.105Z,72.40
2018-06-24T08:49:17.241Z,72.60
2018-06-24T08:51:46.611Z,73.20
2018-06-24T08:54:16.091Z,74.80
2018-06-24T08:56:45.540Z,74.70
2018-06-24T08:59:15.620Z,74.80
2018-06-24T09:01:45.137Z,75.90
2018-06-24T09:04:14.523Z,75.00
2018-06-24T09:06:50.525Z,73.40
2018-06-24T09:09:20.007Z,73.80
2018-06-24T09:11:49.420Z,74.30
2018-06-24T09:14:18.623Z,73.10
2018-06-24T09:16:48.579Z,74.00
2018-06-24T09:24:15.909Z,74.00
2018-06-24T09:26:45.318Z,73.90
2018-06-24T09:29:14.731Z,72.50
2018-06-24T09:31:44.277Z,74.20
2018-06-24T09:34:13.689Z,72.70
2018-06-24T09:36:43.125Z,71.90
2018-06-24T09:39:13.132Z,71.90
2018-06-24T09:41:42.917Z,71.00
2018-06-24T09:44:22.811Z,70.90
2018-06-24T09:46:52.157Z,70.50
2018-06-24T09:49:21.571Z,70.80
2018-06-24T09:51:50.916Z,70.00
2018-06-24T09:54:20.381Z,70.10
2018-06-24T09:56:49.762Z,71.30
2018-06-24T09:59:19.552Z,71.50
2018-06-24T10:01:48.949Z,69.40
2018-06-24T10:04:18.321Z,68.00
2018-06-24T10:06:47.904Z,70.20
2018-06-24T10:09:17.316Z,69.20
2018-06-24T10:14:16.536Z,69.20
2018-06-24T10:16:46.371Z,66.60
2018-06-24T10:19:15.800Z,69.00
2018-06-24T10:21:44.925Z,68.70
2018-06-24T10:24:14.076Z,69.40
2018-06-24T10:26:43.472Z,70.10
2018-06-24T10:29:12.845Z,68.40
2018-06-24T10:31:42.240Z,68.30
2018-06-24T10:34:11.576Z,68.50
2018-06-24T10:36:40.966Z,67.60
2018-06-24T10:39:11.676Z,68.90
2018-06-24T10:41:40.774Z,66.70
2018-06-24T10:44:10.185Z,67.20
2018-06-24T10:46:39.246Z,66.70
2018-06-24T10:49:08.637Z,66.30
2018-06-24T10:51:38.072Z,66.90
2018-06-24T10:54:07.521Z,67.30
2018-06-24T10:56:36.883Z,65.20
2018-06-24T10:59:06.446Z,66.10
2018-06-24T11:01:35.840Z,68.00
2018-06-24T11:04:05.572Z,66.80
2018-06-24T11:06:35.007Z,64.10
2018-06-24T11:09:07.274Z,64.50
2018-06-24T11:11:36.674Z,61.10
2018-06-24T11:14:06.388Z,63.40
2018-06-24T11:16:36.237Z,63.40
2018-06-24T11:19:05.796Z,65.00
2018-06-24T11:21:34.958Z,63.40
2018-06-24T11:24:04.421Z,65.20
2018-06-24T11:26:34.822Z,65.50
2018-06-24T11:29:04.504Z,66.30
2018-06-24T11:31:33.896Z,65.00
2018-06-24T11:34:03.619Z,64.40
2018-06-24T11:36:33.153Z,64.00
2018-06-24T11:39:02.517Z,63.10
2018-06-24T11:41:31.939Z,62.30
2018-06-24T11:44:01.335Z,62.50
2018-06-24T11:46:30.781Z,60.80
2018-06-24T11:48:59.842Z,63.70
2018-06-24T11:51:29.341Z,62.30
2018-06-24T11:53:58.729Z,61.70
2018-06-24T11:56:28.410Z,61.50
2018-06-24T11:58:57.804Z,63.40
2018-06-24T12:01:27.203Z,61.90
2018-06-24T12:03:56.633Z,60.10
2018-06-24T12:06:26.478Z,61.90
2018-06-24T12:08:55.944Z,61.70
2018-06-24T12:11:25.580Z,62.10
2018-06-24T12:13:54.940Z,62.00
2018-06-24T12:16:24.297Z,61.40
2018-06-24T12:18:53.976Z,60.10
2018-06-24T12:21:23.105Z,60.80
2018-06-24T12:23:52.188Z,59.80
2018-06-24T12:26:21.577Z,60.00
2018-06-24T12:28:50.959Z,60.10
2018-06-24T12:31:20.321Z,57.00
2018-06-24T12:33:50.062Z,60.50
2018-06-24T12:36:19.572Z,60.00
2018-06-24T12:38:48.701Z,60.30
2018-06-24T12:41:18.121Z,59.10
2018-06-24T12:43:47.530Z,60.10
2018-06-24T12:46:16.894Z,60.40
2018-06-24T12:48:46.416Z,57.60
2018-06-24T12:51:15.804Z,57.20
2018-06-24T12:53:45.211Z,57.00
2018-06-24T12:56:14.876Z,58.20
2018-06-24T12:58:44.491Z,59.20
2018-06-24T13:01:16.352Z,59.00
2018-06-24T13:03:46.582Z,59.80
2018-06-24T13:06:16.403Z,58.60
2018-06-24T13:08:45.745Z,58.30
2018-06-24T13:11:15.169Z,58.70
2018-06-24T13:13:44.532Z,60.00
2018-06-24T13:16:13.880Z,58.80
2018-06-24T13:18:43.233Z,59.10
2018-06-24T13:21:13.108Z,60.30
2018-06-24T13:23:43.279Z,59.20
2018-06-24T13:26:12.618Z,58.90
2018-06-24T13:28:42.315Z,57.20
2018-06-24T13:31:11.656Z,56.60
2018-06-24T13:33:41.046Z,58.20
2018-06-24T13:36:10.453Z,59.50
2018-06-24T13:38:39.529Z,59.10
2018-06-24T13:41:08.956Z,58.80
2018-06-24T13:43:38.352Z,60.00
2018-06-24T13:46:07.449Z,59.60
2018-06-24T13:48:36.856Z,58.50
2018-06-24T13:51:06.039Z,59.20
2018-06-24T13:53:35.397Z,59.10
2018-06-24T13:56:05.265Z,59.50
2018-06-24T13:58:35.429Z,59.80
2018-06-24T14:01:04.775Z,59.20
2018-06-24T14:03:34.201Z,60.00
2018-06-24T14:06:03.644Z,59.70
2018-06-24T14:08:33.204Z,59.20
2018-06-24T14:11:02.628Z,59.00
2018-06-24T14:13:32.125Z,58.90
2018-06-24T14:16:01.530Z,59.80
2018-06-24T14:18:30.775Z,59.70
2018-06-24T14:21:00.468Z,59.60
2018-06-24T14:23:30.035Z,58.10
2018-06-24T14:28:29.274Z,59.40
2018-06-24T14:30:58.741Z,58.00
2018-06-24T14:33:28.204Z,60.20
2018-06-24T14:35:57.926Z,60.80
2018-06-24T14:38:27.320Z,60.80
2018-06-24T14:40:56.959Z,59.90
2018-06-24T14:43:26.345Z,59.70
2018-06-24T14:45:55.781Z,60.10
2018-06-24T14:48:25.201Z,59.60
2018-06-24T14:50:54.584Z,59.10
2018-06-24T14:53:23.983Z,59.90
2018-06-24T14:55:53.438Z,58.40
2018-06-24T14:58:24.540Z,59.60
2018-06-24T15:00:54.012Z,59.30
2018-06-24T15:03:23.439Z,60.20
2018-06-24T15:05:52.850Z,60.30
2018-06-24T15:08:34.836Z,60.30
2018-06-24T15:11:04.266Z,60.60
2018-06-24T15:13:33.693Z,61.70
2018-06-24T15:16:03.429Z,61.40
2018-06-24T15:18:32.541Z,62.90
2018-06-24T15:21:01.922Z,62.20
2018-06-24T15:23:31.319Z,62.20
2018-06-24T15:26:01.024Z,62.50
2018-06-24T15:28:30.920Z,62.80
2018-06-24T15:31:00.351Z,63.00
2018-06-24T15:33:29.732Z,63.20
2018-06-24T15:35:59.186Z,64.00
2018-06-24T15:38:28.919Z,64.30
2018-06-24T15:40:58.644Z,64.40
2018-06-24T15:43:28.118Z,64.90
2018-06-24T15:45:57.457Z,64.60
2018-06-24T15:48:27.149Z,64.70
2018-06-24T15:50:57.461Z,64.40
2018-06-24T15:53:27.032Z,64.80
2018-06-24T15:55:56.555Z,64.80
2018-06-24T15:58:26.603Z,65.50
2018-06-24T16:00:56.200Z,65.50
2018-06-24T16:03:25.674Z,65.90
2018-06-24T16:05:55.665Z,66.00
2018-06-24T16:08:25.404Z,66.20
2018-06-24T16:10:55.168Z,66.70
2018-06-24T16:13:25.102Z,66.00
2018-06-24T16:15:55.240Z,66.30
2018-06-24T16:18:24.952Z,66.50
2018-06-24T16:20:54.569Z,66.50
2018-06-24T16:23:24.386Z,66.60
2018-06-24T16:25:53.758Z,66.80
2018-06-24T16:28:23.172Z,66.80
2018-06-24T16:30:52.629Z,66.80
2018-06-24T16:33:22.253Z,66.80
2018-06-24T16:35:51.986Z,67.20
2018-06-24T16:38:21.355Z,67.20
2018-06-24T16:40:50.523Z,67.60
2018-06-24T16:43:19.657Z,67.50
2018-06-24T16:45:49.244Z,67.60
2018-06-24T16:48:18.621Z,68.10
2018-06-24T16:50:47.955Z,68.10
2018-06-24T16:53:17.559Z,67.90
2018-06-24T16:55:47.052Z,67.90
2018-06-24T16:58:16.738Z,67.80
2018-06-24T17:00:46.100Z,68.00
2018-06-24T17:03:15.449Z,69.10
2018-06-24T17:05:44.792Z,69.10
2018-06-24T17:08:14.434Z,69.70
2018-06-24T17:10:44.302Z,70.20
2018-06-24T17:13:13.972Z,70.00
2018-06-24T17:15:43.498Z,70.00
2018-06-24T17:18:13.082Z,69.80
2018-06-24T17:20:42.226Z,69.60
2018-06-24T17:25:40.363Z,70.40
2018-06-24T17:28:09.876Z,71.00
2018-06-24T17:30:39.425Z,71.10
2018-06-24T17:33:08.984Z,71.40
2018-06-24T17:35:38.403Z,71.40
2018-06-24T17:38:07.857Z,71.70
2018-06-24T17:40:37.336Z,71.60
2018-06-24T17:43:06.994Z,71.70
2018-06-24T17:45:36.625Z,71.60
2018-06-24T17:48:06.104Z,72.30
2018-06-24T17:50:35.498Z,72.50
2018-06-24T17:53:04.949Z,72.20
2018-06-24T17:55:35.931Z,72.90
2018-06-24T17:58:05.833Z,72.90
2018-06-24T18:00:37.634Z,73.10
2018-06-24T18:03:07.123Z,73.70
2018-06-24T18:05:36.586Z,73.70
2018-06-24T18:08:06.560Z,74.10
2018-06-24T18:13:33.052Z,73.80
2018-06-24T18:16:02.428Z,73.90
2018-06-24T18:18:31.880Z,74.10
2018-06-24T18:21:01.278Z,74.40
2018-06-24T18:23:30.657Z,74.30
2018-06-24T18:26:00.764Z,74.70
2018-06-24T18:28:30.423Z,74.80
2018-06-24T18:30:59.813Z,75.10
2018-06-24T18:33:29.186Z,75.00
2018-06-24T18:35:58.891Z,75.00
2018-06-24T18:38:28.299Z,75.30
2018-06-24T18:40:57.630Z,75.50
2018-06-24T18:49:21.085Z,75.90
2018-06-24T18:51:51.743Z,76.60
2018-06-24T18:54:21.186Z,77.00
2018-06-24T18:56:50.953Z,76.60
2018-06-24T18:59:22.928Z,76.60
2018-06-24T19:01:52.282Z,76.70
2018-06-24T19:04:22.120Z,77.10
2018-06-24T19:06:51.586Z,77.00
2018-06-24T19:09:21.360Z,77.50
2018-06-24T19:11:50.738Z,77.40
2018-06-24T19:14:20.252Z,77.30
2018-06-24T19:16:49.956Z,77.10
2018-06-24T19:19:19.851Z,76.90
2018-06-24T19:21:49.207Z,77.60
2018-06-24T19:24:18.813Z,78.10
2018-06-24T19:26:48.828Z,78.00
2018-06-24T19:29:18.310Z,78.10
2018-06-24T19:31:48.281Z,77.30
2018-06-24T19:34:17.826Z,77.60
2018-06-24T19:36:47.524Z,78.00
2018-06-24T19:39:17.030Z,78.20
2018-06-24T19:41:46.770Z,78.30
2018-06-24T19:44:16.117Z,78.60
2018-06-24T19:46:45.529Z,78.20
2018-06-24T19:49:14.968Z,78.70
2018-06-24T19:51:44.486Z,78.20
2018-06-24T19:54:13.861Z,78.10
2018-06-24T19:56:43.293Z,78.60
2018-06-24T19:59:12.857Z,78.10
2018-06-24T20:01:42.605Z,78.60
2018-06-24T20:04:12.101Z,78.60
2018-06-24T20:06:42.449Z,78.90
2018-06-24T20:09:11.836Z,79.20
2018-06-24T20:11:41.261Z,79.00
2018-06-24T20:14:10.610Z,78.60
2018-06-24T20:16:39.801Z,79.10
2018-06-24T20:19:09.272Z,79.80
2018-06-24T20:21:38.698Z,79.10
2018-06-24T20:24:08.053Z,80.00
2018-06-24T20:29:06.381Z,80.20
2018-06-24T20:31:35.760Z,79.70
2018-06-24T20:34:05.166Z,80.30
2018-06-24T20:36:34.544Z,80.60
2018-06-24T20:39:06.033Z,80.20
2018-06-24T20:44:32.778Z,81.80
2018-06-24T20:47:02.267Z,82.40
2018-06-24T20:49:31.757Z,82.60
2018-06-24T20:52:01.157Z,82.30
2018-06-24T20:54:30.551Z,82.40
2018-06-24T20:56:59.932Z,82.30
2018-06-24T20:59:29.306Z,82.10
2018-06-24T21:01:58.695Z,80.70
2018-06-24T21:06:57.016Z,81.70
2018-06-24T21:09:26.517Z,82.00
2018-06-24T21:12:58.710Z,82.60
2018-06-24T21:15:28.090Z,82.70
2018-06-24T21:17:57.461Z,83.10
2018-06-24T21:20:27.143Z,83.50
2018-06-24T21:22:56.533Z,83.70
2018-06-24T21:25:25.949Z,82.40
2018-06-24T21:27:55.340Z,82.50
2018-06-24T21:30:25.130Z,83.70
2018-06-24T21:32:54.515Z,82.80
2018-06-24T21:35:23.860Z,82.80
2018-06-24T21:37:53.514Z,82.50
2018-06-24T21:40:23.176Z,82.00
2018-06-24T21:42:52.598Z,82.80
2018-06-24T21:45:22.182Z,82.80
2018-06-24T21:47:51.554Z,82.80
2018-06-24T21:50:20.952Z,81.80
2018-06-24T21:52:50.307Z,82.20
2018-06-24T21:55:19.702Z,83.00
2018-06-24T21:57:49.050Z,83.70
2018-06-24T22:00:18.430Z,84.10
2018-06-24T22:02:47.572Z,84.30
2018-06-24T22:05:16.881Z,84.60
2018-06-24T22:07:46.220Z,84.90
2018-06-24T22:10:15.571Z,85.50
2018-06-24T22:12:44.980Z,85.50
2018-06-24T22:15:14.094Z,86.10
2018-06-24T22:17:43.837Z,85.90
2018-06-24T22:20:13.245Z,86.30
2018-06-24T22:22:42.594Z,86.50
2018-06-24T22:25:12.016Z,86.50
2018-06-24T22:27:41.394Z,86.50
2018-06-24T22:30:11.101Z,86.00
2018-06-24T22:32:40.486Z,86.70
2018-06-24T22:35:09.858Z,87.00
2018-06-24T22:37:39.212Z,87.20
2018-06-24T22:40:08.928Z,87.30
2018-06-24T22:42:38.337Z,87.60
2018-06-24T22:45:07.734Z,87.70
2018-06-24T22:47:37.453Z,87.90
2018-06-24T22:50:06.859Z,86.70
2018-06-24T22:52:36.305Z,87.90
2018-06-24T22:57:34.321Z,87.50
2018-06-24T23:00:12.301Z,87.20
2018-06-24T23:02:42.132Z,86.30
2018-06-24T23:05:11.910Z,87.30
2018-06-24T23:07:42.355Z,87.80
2018-06-24T23:10:12.243Z,87.70
2018-06-24T23:12:41.641Z,88.10
2018-06-24T23:15:11.709Z,88.10
2018-06-24T23:17:40.948Z,88.30
2018-06-24T23:20:10.136Z,87.90
2018-06-24T23:22:39.512Z,88.30
2018-06-24T23:25:08.954Z,88.30
2018-06-24T23:27:38.384Z,86.60
2018-06-24T23:30:08.653Z,86.70
2018-06-24T23:32:38.028Z,86.90
2018-06-24T23:35:07.426Z,87.00
2018-06-24T23:37:36.842Z,86.60
2018-06-24T23:40:06.283Z,86.30
2018-06-24T23:42:35.602Z,86.60
2018-06-24T23:45:04.989Z,87.20
2018-06-24T23:47:34.527Z,86.10
2018-06-24T23:50:04.157Z,87.40
2018-06-24T23:52:33.543Z,87.50
2018-06-24T23:55:02.930Z,87.50
2018-06-24T23:57:32.308Z,86.80
